createdAt,value
2022-12-18T08:21:29.769Z,1804.00
2022-12-18T08:22:29.303Z,1618.00
2022-12-18T08:23:29.278Z,1550.00
2022-12-18T08:24:29.195Z,1515.00
2022-12-18T08:25:29.170Z,1505.00
2022-12-18T08:26:29.112Z,1504.00
2022-12-18T08:27:30.095Z,1500.00
2022-12-18T08:28:29.018Z,1496.00
2022-12-18T08:29:29.016Z,1496.00
2022-12-18T08:30:28.989Z,1501.00
2022-12-18T08:31:29.165Z,1505.00
2022-12-18T08:32:28.931Z,1504.00
2022-12-18T08:33:28.808Z,1504.00
2022-12-18T08:34:28.742Z,1503.00
2022-12-18T08:35:32.809Z,1505.00
2022-12-18T08:36:29.816Z,1508.00
2022-12-18T08:37:28.686Z,1506.00
2022-12-18T08:38:28.570Z,1519.00
2022-12-18T08:39:28.477Z,1523.00
2022-12-18T08:40:28.468Z,1518.00
2022-12-18T08:41:28.376Z,1516.00
2022-12-18T08:42:28.532Z,1519.00
2022-12-18T08:43:28.319Z,1520.00
2022-12-18T08:44:28.297Z,1526.00
2022-12-18T08:45:28.207Z,1527.00
2022-12-18T08:46:28.262Z,1525.00
2022-12-18T08:47:28.143Z,1519.00
2022-12-18T08:48:28.119Z,1513.00
2022-12-18T08:49:28.005Z,1513.00
2022-12-18T08:50:28.012Z,1513.00
2022-12-18T08:51:27.915Z,1513.00
2022-12-18T08:52:27.930Z,1520.00
2022-12-18T08:53:32.713Z,1521.00
2022-12-18T08:54:28.803Z,1520.00
2022-12-18T08:55:27.730Z,1520.00
2022-12-18T08:56:27.705Z,1522.00
2022-12-18T08:57:27.610Z,1519.00
2022-12-18T08:58:27.620Z,1521.00
2022-12-18T08:59:27.539Z,1523.00
2022-12-18T09:00:27.506Z,1519.00
2022-12-18T09:01:27.668Z,1520.00
2022-12-18T09:02:27.632Z,1514.00
2022-12-18T09:03:27.357Z,1511.00
2022-12-18T09:04:27.325Z,1509.00
2022-12-18T09:05:27.229Z,1508.00
2022-12-18T09:06:27.373Z,1503.00
2022-12-18T09:07:27.172Z,1499.00
2022-12-18T09:08:27.163Z,1497.00
2022-12-18T09:09:27.146Z,1496.00
2022-12-18T09:10:27.202Z,1490.00
2022-12-18T09:11:26.997Z,1484.00
2022-12-18T09:12:26.977Z,1479.00
2022-12-18T09:13:26.924Z,1478.00
2022-12-18T09:14:26.916Z,1477.00
2022-12-18T09:15:26.927Z,1474.00
2022-12-18T09:16:31.666Z,1474.00
2022-12-18T09:17:27.797Z,1473.00
2022-12-18T09:18:26.721Z,1470.00
2022-12-18T09:19:26.712Z,1464.00
2022-12-18T09:20:26.653Z,1460.00
2022-12-18T09:21:26.602Z,1454.00
2022-12-18T09:22:26.542Z,1450.00
2022-12-18T09:23:26.498Z,1445.00
2022-12-18T09:24:26.590Z,1441.00
2022-12-18T09:25:26.516Z,1435.00
2022-12-18T09:26:26.505Z,1436.00
2022-12-18T09:27:26.330Z,1432.00
2022-12-18T09:28:26.277Z,1434.00
2022-12-18T09:29:26.285Z,1435.00
2022-12-18T09:30:26.216Z,1436.00
2022-12-18T09:31:26.384Z,1436.00
2022-12-18T09:32:26.150Z,1437.00
2022-12-18T09:33:26.118Z,1435.00
2022-12-18T09:34:26.074Z,1436.00
2022-12-18T09:35:26.151Z,1435.00
2022-12-18T09:36:25.959Z,1433.00
2022-12-18T09:37:26.002Z,1429.00
2022-12-18T09:38:25.995Z,1428.00
2022-12-18T09:39:25.887Z,1429.00
2022-12-18T09:40:25.823Z,1433.00
2022-12-18T09:41:25.900Z,1436.00
2022-12-18T09:42:25.766Z,1434.00
2022-12-18T09:43:25.719Z,1434.00
2022-12-18T09:44:25.702Z,1438.00
2022-12-18T09:45:25.708Z,1437.00
2022-12-18T09:46:25.601Z,1435.00
2022-12-18T09:47:25.631Z,1435.00
2022-12-18T09:48:25.493Z,1431.00
2022-12-18T09:49:25.569Z,1431.00
2022-12-18T09:50:25.518Z,1430.00
2022-12-18T09:51:25.427Z,1431.00
2022-12-18T09:52:25.373Z,1427.00
2022-12-18T09:53:25.413Z,1430.00
2022-12-18T09:54:25.253Z,1428.00
2022-12-18T09:55:25.248Z,1429.00
2022-12-18T09:56:25.215Z,1429.00
2022-12-18T09:57:25.262Z,1426.00
2022-12-18T09:58:25.090Z,1425.00
2022-12-18T09:59:25.108Z,1426.00
2022-12-18T10:00:25.069Z,1418.00
2022-12-18T10:01:25.216Z,1418.00
2022-12-18T10:02:25.128Z,1418.00
2022-12-18T10:03:25.116Z,1416.00
2022-12-18T10:04:24.915Z,1415.00
2022-12-18T10:05:24.857Z,1418.00
2022-12-18T10:06:24.792Z,1415.00
2022-12-18T10:07:24.923Z,1413.00
2022-12-18T10:08:24.761Z,1409.00
2022-12-18T10:09:24.915Z,1407.00
2022-12-18T10:10:24.675Z,1406.00
2022-12-18T10:11:24.673Z,1405.00
2022-12-18T10:12:24.630Z,1400.00
2022-12-18T10:13:24.694Z,1401.00
2022-12-18T10:14:24.775Z,1401.00
2022-12-18T10:15:24.564Z,1403.00
2022-12-18T10:16:24.545Z,1402.00
2022-12-18T10:17:24.591Z,1401.00
2022-12-18T10:18:24.406Z,1400.00
2022-12-18T10:19:24.478Z,1398.00
2022-12-18T10:20:24.361Z,1395.00
2022-12-18T10:21:24.383Z,1392.00
2022-12-18T10:22:24.818Z,1393.00
2022-12-18T10:23:24.340Z,1390.00
2022-12-18T10:24:24.209Z,1394.00
2022-12-18T10:25:24.258Z,1395.00
2022-12-18T10:26:24.168Z,1392.00
2022-12-18T10:27:24.162Z,1388.00
2022-12-18T10:28:24.156Z,1383.00
2022-12-18T10:29:29.982Z,1380.00
2022-12-18T10:30:25.211Z,1384.00
2022-12-18T10:31:24.221Z,1380.00
2022-12-18T10:32:24.058Z,1378.00
2022-12-18T10:33:24.011Z,1373.00
2022-12-18T10:34:24.020Z,1371.00
2022-12-18T10:35:24.088Z,1367.00
2022-12-18T10:36:23.993Z,1364.00
2022-12-18T10:37:23.883Z,1363.00
2022-12-18T10:38:24.074Z,1362.00
2022-12-18T10:39:23.828Z,1363.00
2022-12-18T10:40:23.974Z,1361.00
2022-12-18T10:41:23.761Z,1357.00
2022-12-18T10:42:23.770Z,1356.00
2022-12-18T10:43:23.721Z,1354.00
2022-12-18T10:44:23.710Z,1353.00
2022-12-18T10:45:23.900Z,1358.00
2022-12-18T10:46:23.992Z,1356.00
2022-12-18T10:47:23.597Z,1359.00
2022-12-18T10:48:23.567Z,1357.00
2022-12-18T10:49:23.503Z,1355.00
2022-12-18T10:50:26.209Z,1352.00
2022-12-18T10:51:24.484Z,1349.00
2022-12-18T10:52:23.420Z,1347.00
2022-12-18T10:53:23.403Z,1340.00
2022-12-18T10:54:23.522Z,1338.00
2022-12-18T10:55:23.374Z,1340.00
2022-12-18T10:56:23.284Z,1340.00
2022-12-18T10:57:23.533Z,1344.00
2022-12-18T10:58:26.630Z,1345.00
2022-12-18T10:59:23.234Z,1344.00
2022-12-18T11:00:23.184Z,1345.00
2022-12-18T11:01:23.246Z,1343.00
2022-12-18T11:02:23.367Z,1340.00
2022-12-18T11:03:23.168Z,1342.00
2022-12-18T11:04:23.066Z,1348.00
2022-12-18T11:05:23.216Z,1345.00
2022-12-18T11:06:22.999Z,1340.00
2022-12-18T11:07:23.029Z,1334.00
2022-12-18T11:08:22.984Z,1330.00
2022-12-18T11:09:22.967Z,1329.00
2022-12-18T11:10:22.885Z,1328.00
2022-12-18T11:11:22.935Z,1326.00
2022-12-18T11:12:22.864Z,1325.00
2022-12-18T11:13:22.920Z,1324.00
2022-12-18T11:14:22.811Z,1323.00
2022-12-18T11:15:22.834Z,1320.00
2022-12-18T11:16:22.925Z,1316.00
2022-12-18T11:17:25.962Z,1317.00
2022-12-18T11:18:22.831Z,1312.00
2022-12-18T11:19:22.726Z,1311.00
2022-12-18T11:20:22.763Z,1309.00
2022-12-18T11:21:22.663Z,1310.00
2022-12-18T11:22:22.582Z,1307.00
2022-12-18T11:23:22.570Z,1307.00
2022-12-18T11:24:22.526Z,1306.00
2022-12-18T11:25:37.922Z,1302.00
2022-12-18T11:26:23.517Z,1303.00
2022-12-18T11:27:22.465Z,1302.00
2022-12-18T11:28:22.419Z,1299.00
2022-12-18T11:29:22.383Z,1299.00
2022-12-18T11:30:22.353Z,1296.00
2022-12-18T11:31:22.304Z,1292.00
2022-12-18T11:32:22.479Z,1289.00
2022-12-18T11:33:22.251Z,1294.00
2022-12-18T11:34:30.392Z,1291.00
2022-12-18T11:35:23.224Z,1292.00
2022-12-18T11:36:22.239Z,1289.00
2022-12-18T11:37:22.199Z,1284.00
2022-12-18T11:38:22.087Z,1284.00
2022-12-18T11:39:22.496Z,1283.00
2022-12-18T11:40:22.001Z,1285.00
2022-12-18T11:41:22.033Z,1280.00
2022-12-18T11:42:21.949Z,1281.00
2022-12-18T11:43:21.972Z,1279.00
2022-12-18T11:44:21.890Z,1276.00
2022-12-18T11:45:21.893Z,1272.00
2022-12-18T11:46:21.919Z,1270.00
2022-12-18T11:47:21.895Z,1270.00
2022-12-18T11:48:21.773Z,1269.00
2022-12-18T11:49:21.789Z,1268.00
2022-12-18T11:50:21.803Z,1271.00
2022-12-18T11:51:24.982Z,1273.00
2022-12-18T11:52:22.654Z,1275.00
2022-12-18T11:53:21.629Z,1275.00
2022-12-18T11:54:21.617Z,1269.00
2022-12-18T11:55:21.580Z,1267.00
2022-12-18T11:56:21.579Z,1266.00
2022-12-18T11:57:21.543Z,1265.00
2022-12-18T11:58:22.558Z,1267.00
2022-12-18T11:59:21.464Z,1264.00
2022-12-18T12:00:21.463Z,1261.00
2022-12-18T12:01:21.449Z,1262.00
2022-12-18T12:02:21.525Z,1264.00
2022-12-18T12:03:21.771Z,1265.00
2022-12-18T12:04:21.433Z,1262.00
2022-12-18T12:05:21.299Z,1258.00
2022-12-18T12:06:21.363Z,1256.00
2022-12-18T12:07:21.297Z,1256.00
2022-12-18T12:08:21.247Z,1253.00
2022-12-18T12:09:21.185Z,1251.00
2022-12-18T12:10:21.207Z,1251.00
2022-12-18T12:11:21.168Z,1251.00
2022-12-18T12:12:21.324Z,1252.00
2022-12-18T12:13:21.118Z,1246.00
2022-12-18T12:14:21.074Z,1243.00
2022-12-18T12:15:21.034Z,1244.00
2022-12-18T12:16:21.087Z,1246.00
2022-12-18T12:17:20.992Z,1245.00
2022-12-18T12:18:20.937Z,1241.00
2022-12-18T12:19:20.907Z,1239.00
2022-12-18T12:20:20.904Z,1239.00
2022-12-18T12:21:20.867Z,1239.00
2022-12-18T12:22:20.951Z,1240.00
2022-12-18T12:23:24.773Z,1242.00
2022-12-18T12:24:21.820Z,1244.00
2022-12-18T12:25:20.808Z,1244.00
2022-12-18T12:26:20.757Z,1239.00
2022-12-18T12:27:20.704Z,1238.00
2022-12-18T12:28:20.699Z,1240.00
2022-12-18T12:29:21.373Z,1238.00
2022-12-18T12:30:21.489Z,1236.00
2022-12-18T12:31:20.821Z,1235.00
2022-12-18T12:32:20.636Z,1233.00
2022-12-18T12:33:20.585Z,1233.00
2022-12-18T12:34:20.569Z,1232.00
2022-12-18T12:35:20.529Z,1229.00
2022-12-18T12:36:20.618Z,1219.00
2022-12-18T12:37:20.558Z,1203.00
2022-12-18T12:38:20.549Z,1120.00
2022-12-18T12:39:20.404Z,1081.00
2022-12-18T12:40:48.223Z,1055.00
2022-12-18T12:41:21.399Z,1051.00
2022-12-18T12:42:20.358Z,1041.00
2022-12-18T12:43:20.580Z,1045.00
2022-12-18T12:44:20.318Z,1067.00
2022-12-18T12:45:20.361Z,1129.00
2022-12-18T12:46:20.339Z,1129.00
2022-12-18T12:47:20.320Z,1120.00
2022-12-18T12:48:20.203Z,1112.00
2022-12-18T12:49:20.217Z,1105.00
2022-12-18T12:50:27.152Z,1105.00
2022-12-18T12:51:20.129Z,1106.00
2022-12-18T12:52:20.147Z,1110.00
2022-12-18T12:53:20.067Z,1112.00
2022-12-18T12:54:20.158Z,1113.00
2022-12-18T12:55:20.039Z,1117.00
2022-12-18T12:56:20.015Z,1120.00
2022-12-18T12:57:20.011Z,1122.00
2022-12-18T12:58:19.997Z,1123.00
2022-12-18T12:59:19.954Z,1123.00
2022-12-18T13:00:20.417Z,1121.00
2022-12-18T13:01:23.358Z,1124.00
2022-12-18T13:02:21.570Z,1121.00
2022-12-18T13:03:20.635Z,1119.00
2022-12-18T13:04:19.985Z,1120.00
2022-12-18T13:05:19.947Z,1118.00
2022-12-18T13:06:19.812Z,1119.00
2022-12-18T13:07:19.728Z,1116.00
2022-12-18T13:08:19.761Z,1116.00
2022-12-18T13:09:19.851Z,1115.00
2022-12-18T13:10:19.900Z,1113.00
2022-12-18T13:11:19.849Z,1114.00
2022-12-18T13:12:19.732Z,1115.00
2022-12-18T13:13:23.686Z,1122.00
2022-12-18T13:14:19.706Z,1127.00
2022-12-18T13:15:19.721Z,1128.00
2022-12-18T13:16:19.666Z,1129.00
2022-12-18T13:17:19.706Z,1129.00
2022-12-18T13:18:19.623Z,1130.00
2022-12-18T13:19:19.618Z,1134.00
2022-12-18T13:20:19.561Z,1135.00
2022-12-18T13:21:19.603Z,1138.00
2022-12-18T13:22:19.525Z,1139.00
2022-12-18T13:23:19.520Z,1139.00
2022-12-18T13:24:19.495Z,1140.00
2022-12-18T13:25:19.515Z,1141.00
2022-12-18T13:26:24.631Z,1139.00
2022-12-18T13:27:20.469Z,1139.00
2022-12-18T13:28:19.401Z,1138.00
2022-12-18T13:29:19.423Z,1137.00
2022-12-18T13:30:19.333Z,1140.00
2022-12-18T13:31:19.332Z,1141.00
2022-12-18T13:32:19.967Z,1140.00
2022-12-18T13:33:19.285Z,1137.00
2022-12-18T13:34:28.387Z,1137.00
2022-12-18T13:35:20.385Z,1133.00
2022-12-18T13:36:19.179Z,1131.00
2022-12-18T13:37:19.320Z,1124.00
2022-12-18T13:38:19.151Z,1125.00
2022-12-18T13:39:23.881Z,1123.00
2022-12-18T13:40:20.196Z,1125.00
2022-12-18T13:41:19.150Z,1128.00
2022-12-18T13:42:19.223Z,1133.00
2022-12-18T13:43:19.112Z,1156.00
2022-12-18T13:44:19.078Z,1170.00
2022-12-18T13:45:19.038Z,1175.00
2022-12-18T13:46:19.009Z,1177.00
2022-12-18T13:47:18.984Z,1178.00
2022-12-18T13:48:18.982Z,1178.00
2022-12-18T13:49:18.924Z,1176.00
2022-12-18T13:50:18.914Z,1171.00
2022-12-18T13:51:18.888Z,1165.00
2022-12-18T13:52:19.004Z,1159.00
2022-12-18T13:53:18.816Z,1158.00
2022-12-18T13:54:18.898Z,1158.00
2022-12-18T13:55:18.766Z,1159.00
2022-12-18T13:56:18.762Z,1157.00
2022-12-18T13:57:20.638Z,1155.00
2022-12-18T13:58:18.782Z,1160.00
2022-12-18T13:59:18.651Z,1155.00
2022-12-18T14:00:18.634Z,1153.00
2022-12-18T14:01:18.691Z,1154.00
2022-12-18T14:02:18.849Z,1163.00
2022-12-18T14:03:22.037Z,1163.00
2022-12-18T14:04:18.567Z,1161.00
2022-12-18T14:05:18.495Z,1165.00
2022-12-18T14:06:18.624Z,1167.00
2022-12-18T14:07:18.518Z,1168.00
2022-12-18T14:08:18.437Z,1168.00
2022-12-18T14:09:21.522Z,1163.00
2022-12-18T14:10:44.399Z,1160.00
2022-12-18T14:11:19.356Z,1156.00
2022-12-18T14:12:18.326Z,1154.00
2022-12-18T14:13:18.323Z,1152.00
2022-12-18T14:14:18.628Z,1152.00
2022-12-18T14:15:18.450Z,1152.00
2022-12-18T14:16:18.478Z,1149.00
2022-12-18T14:17:18.415Z,1148.00
2022-12-18T14:18:18.414Z,1144.00
2022-12-18T14:19:18.323Z,1152.00
2022-12-18T14:20:18.353Z,1146.00
2022-12-18T14:21:18.269Z,1142.00
2022-12-18T14:22:18.351Z,1142.00
2022-12-18T14:23:18.197Z,1141.00
2022-12-18T14:24:19.748Z,1141.00
2022-12-18T14:25:18.161Z,1145.00
2022-12-18T14:26:18.157Z,1149.00
2022-12-18T14:27:18.055Z,1158.00
2022-12-18T14:28:18.085Z,1167.00
2022-12-18T14:29:18.028Z,1167.00
2022-12-18T14:30:18.102Z,1166.00
2022-12-18T14:31:18.044Z,1171.00
2022-12-18T14:32:18.687Z,1170.00
2022-12-18T14:33:17.875Z,1174.00
2022-12-18T14:34:17.859Z,1179.00
2022-12-18T14:35:17.788Z,1194.00
2022-12-18T14:36:17.791Z,1201.00
2022-12-18T14:37:17.771Z,1195.00
2022-12-18T14:38:17.712Z,1195.00
2022-12-18T14:39:17.647Z,1197.00
2022-12-18T14:40:17.646Z,1195.00
2022-12-18T14:41:17.534Z,1189.00
2022-12-18T14:42:17.553Z,1184.00
2022-12-18T14:43:17.503Z,1183.00
2022-12-18T14:44:17.476Z,1184.00
2022-12-18T14:45:17.390Z,1184.00
2022-12-18T14:46:17.528Z,1185.00
2022-12-18T14:47:17.445Z,1184.00
2022-12-18T14:48:17.816Z,1178.00
2022-12-18T14:49:18.268Z,1175.00
2022-12-18T14:50:17.212Z,1170.00
2022-12-18T14:51:17.211Z,1171.00
2022-12-18T14:52:17.152Z,1171.00
2022-12-18T14:53:17.124Z,1172.00
2022-12-18T14:54:17.048Z,1168.00
2022-12-18T14:55:17.048Z,1161.00
2022-12-18T14:56:16.991Z,1159.00
2022-12-18T14:57:16.934Z,1158.00
2022-12-18T14:58:16.909Z,1160.00
2022-12-18T14:59:20.762Z,1158.00
2022-12-18T15:00:17.839Z,1155.00
2022-12-18T15:01:16.827Z,1157.00
2022-12-18T15:02:17.162Z,1152.00
2022-12-18T15:03:16.795Z,1154.00
2022-12-18T15:04:16.704Z,1154.00
2022-12-18T15:05:16.629Z,1152.00
2022-12-18T15:06:16.648Z,1153.00
2022-12-18T15:07:16.626Z,1151.00
2022-12-18T15:08:16.545Z,1152.00
2022-12-18T15:09:16.506Z,1151.00
2022-12-18T15:10:16.469Z,1154.00
2022-12-18T15:11:16.403Z,1150.00
2022-12-18T15:12:16.385Z,1147.00
2022-12-18T15:13:16.338Z,1143.00
2022-12-18T15:14:16.314Z,1139.00
2022-12-18T15:15:16.244Z,1137.00
2022-12-18T15:16:16.404Z,1137.00
2022-12-18T15:17:16.163Z,1137.00
2022-12-18T15:18:16.720Z,1136.00
2022-12-18T15:19:16.141Z,1137.00
2022-12-18T15:20:16.087Z,1137.00
2022-12-18T15:21:16.026Z,1134.00
2022-12-18T15:22:16.023Z,1133.00
2022-12-18T15:23:15.915Z,1132.00
2022-12-18T15:24:15.908Z,1134.00
2022-12-18T15:25:15.849Z,1136.00
2022-12-18T15:26:15.837Z,1136.00
2022-12-18T15:27:15.747Z,1135.00
2022-12-18T15:28:15.753Z,1137.00
2022-12-18T15:29:15.969Z,1135.00
2022-12-18T15:30:15.679Z,1136.00
2022-12-18T15:31:16.212Z,1135.00
2022-12-18T15:32:15.664Z,1136.00
2022-12-18T15:33:15.558Z,1135.00
2022-12-18T15:34:15.663Z,1133.00
2022-12-18T15:35:15.482Z,1128.00
2022-12-18T15:36:15.480Z,1128.00
2022-12-18T15:37:15.417Z,1128.00
2022-12-18T15:38:15.392Z,1123.00
2022-12-18T15:39:15.291Z,1120.00
2022-12-18T15:40:15.298Z,1121.00
2022-12-18T15:41:17.838Z,1119.00
2022-12-18T15:42:16.162Z,1118.00
2022-12-18T15:43:15.116Z,1118.00
2022-12-18T15:44:15.096Z,1117.00
2022-12-18T15:45:14.979Z,1115.00
2022-12-18T15:46:15.047Z,1118.00
2022-12-18T15:47:14.987Z,1115.00
2022-12-18T15:48:14.877Z,1115.00
2022-12-18T15:49:14.799Z,1116.00
2022-12-18T15:50:14.872Z,1115.00
2022-12-18T15:51:14.688Z,1115.00
2022-12-18T15:52:14.672Z,1112.00
2022-12-18T15:53:14.589Z,1114.00
2022-12-18T15:54:14.557Z,1114.00
2022-12-18T15:55:14.492Z,1111.00
2022-12-18T15:56:14.467Z,930.00
2022-12-18T15:57:14.476Z,765.00
2022-12-18T15:58:14.437Z,674.00
2022-12-18T15:59:14.363Z,581.00
2022-12-18T16:00:14.380Z,564.00
2022-12-18T16:01:14.337Z,550.00
2022-12-18T16:02:14.484Z,516.00
2022-12-18T16:03:14.351Z,509.00
2022-12-18T16:04:14.330Z,508.00
2022-12-18T16:05:14.256Z,498.00
2022-12-18T16:06:14.365Z,499.00
2022-12-18T16:07:15.801Z,498.00
2022-12-18T16:08:15.288Z,506.00
2022-12-18T16:09:14.262Z,527.00
2022-12-18T16:10:14.307Z,555.00
2022-12-18T16:11:14.220Z,632.00
2022-12-18T16:12:14.339Z,639.00
2022-12-18T16:13:14.228Z,633.00
2022-12-18T16:14:14.231Z,637.00
2022-12-18T16:15:14.146Z,698.00
2022-12-18T16:16:14.196Z,692.00
2022-12-18T16:17:14.226Z,697.00
2022-12-18T16:18:14.130Z,701.00
2022-12-18T16:19:14.283Z,710.00
2022-12-18T16:20:14.035Z,721.00
2022-12-18T16:21:13.977Z,738.00
2022-12-18T16:22:14.051Z,754.00
2022-12-18T16:23:13.884Z,791.00
2022-12-18T16:24:13.867Z,788.00
2022-12-18T16:25:14.203Z,788.00
2022-12-18T16:26:13.808Z,793.00
2022-12-18T16:27:13.708Z,797.00
2022-12-18T16:28:13.720Z,800.00
2022-12-18T16:29:13.655Z,822.00
2022-12-18T16:30:13.634Z,828.00
2022-12-18T16:31:13.600Z,832.00
2022-12-18T16:32:13.632Z,839.00
2022-12-18T16:33:13.488Z,843.00
2022-12-18T16:34:13.485Z,850.00
2022-12-18T16:35:13.366Z,862.00
2022-12-18T16:36:13.378Z,873.00
2022-12-18T16:37:13.309Z,881.00
2022-12-18T16:38:13.385Z,889.00
2022-12-18T16:39:13.246Z,898.00
2022-12-18T16:40:13.192Z,905.00
2022-12-18T16:41:13.107Z,912.00
2022-12-18T16:42:13.071Z,921.00
2022-12-18T16:43:13.027Z,929.00
2022-12-18T16:44:13.021Z,936.00
2022-12-18T16:45:12.902Z,946.00
2022-12-18T16:46:13.004Z,989.00
2022-12-18T16:47:15.072Z,981.00
2022-12-18T16:48:13.028Z,987.00
2022-12-18T16:49:12.931Z,1002.00
2022-12-18T16:50:12.918Z,1003.00
2022-12-18T16:51:12.847Z,1004.00
2022-12-18T16:52:12.842Z,1005.00
2022-12-18T16:53:12.716Z,1012.00
2022-12-18T16:54:18.665Z,1014.00
2022-12-18T16:55:13.661Z,1124.00
2022-12-18T16:56:12.594Z,1090.00
2022-12-18T16:57:12.543Z,1109.00
2022-12-18T16:58:12.471Z,1112.00
2022-12-18T16:59:12.472Z,1117.00
2022-12-18T17:00:12.404Z,1128.00
2022-12-18T17:01:12.422Z,1118.00
2022-12-18T17:02:12.470Z,1124.00
2022-12-18T17:03:12.351Z,1133.00
2022-12-18T17:04:12.212Z,1139.00
2022-12-18T17:05:12.137Z,1161.00
2022-12-18T17:06:12.062Z,1167.00
2022-12-18T17:07:12.034Z,1179.00
2022-12-18T17:08:11.951Z,1197.00
2022-12-18T17:09:11.887Z,1216.00
2022-12-18T17:10:11.920Z,1194.00
2022-12-18T17:11:11.759Z,1197.00
2022-12-18T17:12:11.692Z,1209.00
2022-12-18T17:13:11.658Z,1219.00
2022-12-18T17:14:11.586Z,1233.00
2022-12-18T17:15:11.552Z,1249.00
2022-12-18T17:16:11.489Z,1257.00
2022-12-18T17:17:26.919Z,1257.00
2022-12-18T17:18:12.374Z,1267.00
2022-12-18T17:19:16.775Z,1282.00
2022-12-18T17:20:12.238Z,1285.00
2022-12-18T17:21:11.182Z,1291.00
2022-12-18T17:22:11.155Z,1297.00
2022-12-18T17:23:11.023Z,1312.00
2022-12-18T17:24:11.018Z,1319.00
2022-12-18T17:25:10.922Z,1318.00
2022-12-18T17:26:10.994Z,1319.00
2022-12-18T17:27:10.812Z,1324.00
2022-12-18T17:28:10.774Z,1338.00
2022-12-18T17:29:10.709Z,1342.00
2022-12-18T17:30:10.683Z,1351.00
2022-12-18T17:31:10.585Z,1359.00
2022-12-18T17:32:10.528Z,1362.00
2022-12-18T17:33:10.445Z,1369.00
2022-12-18T17:34:10.424Z,1373.00
2022-12-18T17:35:10.347Z,1380.00
2022-12-18T17:36:10.334Z,1388.00
2022-12-18T17:37:10.216Z,1399.00
2022-12-18T17:38:10.198Z,1408.00
2022-12-18T17:39:10.092Z,1421.00
2022-12-18T17:40:10.079Z,1433.00
2022-12-18T17:41:10.008Z,1446.00
2022-12-18T17:42:10.048Z,1466.00
2022-12-18T17:43:09.861Z,1469.00
2022-12-18T17:44:09.857Z,1488.00
2022-12-18T17:45:09.755Z,1499.00
2022-12-18T17:46:09.731Z,1506.00
2022-12-18T17:47:09.652Z,1512.00
2022-12-18T17:48:09.631Z,1518.00
2022-12-18T17:49:09.525Z,1528.00
2022-12-18T17:50:09.496Z,1533.00
2022-12-18T17:51:09.413Z,1543.00
2022-12-18T17:52:09.461Z,1549.00
2022-12-18T17:53:09.305Z,1562.00
2022-12-18T17:54:09.380Z,1580.00
2022-12-18T17:55:09.215Z,1587.00
2022-12-18T17:56:09.192Z,1606.00
2022-12-18T17:57:09.511Z,1625.00
2022-12-18T17:58:09.919Z,1641.00
2022-12-18T17:59:09.553Z,1648.00
2022-12-18T18:00:09.115Z,1650.00
2022-12-18T18:01:08.884Z,1652.00
2022-12-18T18:02:09.072Z,1655.00
2022-12-18T18:03:08.969Z,1658.00
2022-12-18T18:04:08.854Z,1662.00
2022-12-18T18:05:08.651Z,1669.00
2022-12-18T18:06:08.643Z,1675.00
2022-12-18T18:07:08.595Z,1678.00
2022-12-18T18:08:08.556Z,1688.00
2022-12-18T18:09:15.095Z,1693.00
2022-12-18T18:10:09.414Z,1698.00
2022-12-18T18:11:08.344Z,1704.00
2022-12-18T18:12:08.327Z,1714.00
2022-12-18T18:13:08.222Z,1721.00
2022-12-18T18:14:08.312Z,1729.00
2022-12-18T18:15:08.139Z,1732.00
2022-12-18T18:16:08.257Z,1742.00
2022-12-18T18:17:08.020Z,1746.00
2022-12-18T18:18:07.994Z,1753.00
2022-12-18T18:19:07.939Z,1762.00
2022-12-18T18:20:07.900Z,1775.00
2022-12-18T18:21:07.819Z,1781.00
2022-12-18T18:22:07.777Z,1789.00
2022-12-18T18:23:07.705Z,1791.00
2022-12-18T18:24:07.697Z,1801.00
2022-12-18T18:25:07.598Z,1802.00
2022-12-18T18:26:07.614Z,1801.00
2022-12-18T18:27:07.572Z,1799.00
2022-12-18T18:28:07.633Z,1804.00
2022-12-18T18:29:07.428Z,1807.00
2022-12-18T18:30:07.494Z,1814.00
2022-12-18T18:31:07.354Z,1822.00
2022-12-18T18:32:07.451Z,1825.00
2022-12-18T18:33:11.905Z,1832.00
2022-12-18T18:34:08.211Z,1834.00
2022-12-18T18:35:12.409Z,1834.00
2022-12-18T18:36:08.182Z,1837.00
2022-12-18T18:37:07.068Z,1840.00
2022-12-18T18:38:07.019Z,1845.00
2022-12-18T18:39:06.962Z,1853.00
2022-12-18T18:40:06.898Z,1857.00
2022-12-18T18:41:06.835Z,1861.00
2022-12-18T18:42:06.791Z,1864.00
2022-12-18T18:43:06.734Z,1867.00
2022-12-18T18:44:06.687Z,1868.00
2022-12-18T18:45:07.181Z,1869.00
2022-12-18T18:46:06.828Z,1871.00
2022-12-18T18:47:09.536Z,1876.00
2022-12-18T18:48:06.573Z,1878.00
2022-12-18T18:49:06.414Z,1908.00
2022-12-18T18:50:06.473Z,1771.00
2022-12-18T18:51:06.302Z,1255.00
2022-12-18T18:52:06.333Z,1090.00
2022-12-18T18:53:06.313Z,998.00
2022-12-18T18:54:06.252Z,897.00
2022-12-18T18:55:13.376Z,759.00
2022-12-18T18:56:45.559Z,832.00
2022-12-18T18:57:26.279Z,906.00
2022-12-18T18:58:07.109Z,884.00
2022-12-18T18:59:06.084Z,867.00
2022-12-18T19:00:06.051Z,858.00
2022-12-18T19:01:06.051Z,860.00
2022-12-18T19:02:06.208Z,869.00
2022-12-18T19:03:06.256Z,889.00
2022-12-18T19:04:05.926Z,902.00
2022-12-18T19:05:05.913Z,903.00
2022-12-18T19:06:05.895Z,906.00
2022-12-18T19:07:05.827Z,905.00
2022-12-18T19:08:05.808Z,1129.00
2022-12-18T19:09:05.772Z,928.00
2022-12-18T19:10:05.745Z,933.00
2022-12-18T19:11:05.654Z,1143.00
2022-12-18T19:12:05.639Z,1021.00
2022-12-18T19:13:05.572Z,1170.00
2022-12-18T19:14:05.590Z,965.00
2022-12-18T19:15:05.451Z,935.00
2022-12-18T19:16:05.614Z,927.00
2022-12-18T19:17:05.402Z,925.00
2022-12-18T19:18:05.466Z,924.00
2022-12-18T19:19:05.294Z,925.00
2022-12-18T19:20:05.263Z,933.00
2022-12-18T19:21:05.173Z,938.00
2022-12-18T19:22:05.166Z,947.00
2022-12-18T19:23:05.096Z,948.00
2022-12-18T19:24:05.083Z,947.00
2022-12-18T19:25:04.999Z,952.00
2022-12-18T19:26:27.657Z,948.00
2022-12-18T19:27:05.933Z,950.00
2022-12-18T19:28:04.876Z,956.00
2022-12-18T19:29:04.832Z,955.00
2022-12-18T19:30:04.777Z,955.00
2022-12-18T19:31:04.780Z,958.00
2022-12-18T19:32:04.768Z,963.00
2022-12-18T19:33:19.813Z,977.00
2022-12-18T19:34:05.694Z,999.00
2022-12-18T19:35:04.561Z,999.00
2022-12-18T19:36:04.555Z,1010.00
2022-12-18T19:37:04.473Z,1020.00
2022-12-18T19:38:04.446Z,1023.00
2022-12-18T19:39:04.416Z,1029.00
2022-12-18T19:40:12.289Z,1034.00
2022-12-18T19:41:05.297Z,1043.00
2022-12-18T19:42:04.234Z,1046.00
2022-12-18T19:43:04.235Z,1046.00
2022-12-18T19:44:07.581Z,1048.00
2022-12-18T19:45:04.104Z,1047.00
2022-12-18T19:46:04.117Z,1047.00
2022-12-18T19:47:04.055Z,1050.00
2022-12-18T19:48:04.607Z,1047.00
2022-12-18T19:49:03.943Z,1040.00
2022-12-18T19:50:04.011Z,1034.00
2022-12-18T19:51:03.861Z,1037.00
2022-12-18T19:52:03.778Z,1038.00
2022-12-18T19:53:03.841Z,1040.00
2022-12-18T19:54:03.694Z,1040.00
2022-12-18T19:55:03.722Z,1044.00
2022-12-18T19:56:03.607Z,1047.00
2022-12-18T19:57:03.670Z,1050.00
2022-12-18T19:58:03.549Z,1053.00
2022-12-18T19:59:03.548Z,1055.00
2022-12-18T20:00:03.491Z,1054.00
2022-12-18T20:01:03.473Z,1055.00
2022-12-18T20:02:03.533Z,1055.00
2022-12-18T20:03:12.527Z,1056.00
2022-12-18T20:04:04.412Z,1056.00
2022-12-18T20:05:03.219Z,1055.00
2022-12-18T20:06:03.315Z,1053.00
2022-12-18T20:07:03.110Z,1055.00
2022-12-18T20:08:03.086Z,1055.00
2022-12-18T20:09:03.016Z,1054.00
2022-12-18T20:10:08.654Z,1051.00
2022-12-18T20:11:03.925Z,1051.00
2022-12-18T20:12:02.881Z,1045.00
2022-12-18T20:13:02.848Z,1041.00
2022-12-18T20:14:02.790Z,1042.00
2022-12-18T20:15:02.762Z,1042.00
2022-12-18T20:16:02.647Z,1043.00
2022-12-18T20:17:02.708Z,1045.00
2022-12-18T20:18:02.588Z,1044.00
2022-12-18T20:19:02.573Z,1044.00
2022-12-18T20:20:02.497Z,1044.00
2022-12-18T20:21:02.558Z,1046.00
2022-12-18T20:22:08.276Z,1045.00
2022-12-18T20:23:03.493Z,1047.00
2022-12-18T20:24:02.354Z,1047.00
2022-12-18T20:25:02.298Z,1049.00
2022-12-18T20:26:02.190Z,1049.00
2022-12-18T20:27:02.242Z,1051.00
2022-12-18T20:28:02.142Z,1049.00
2022-12-18T20:29:02.111Z,1051.00